createdAt,value
2023-03-03T00:01:56.588Z,1.23
2023-03-03T00:04:25.316Z,1.24
2023-03-03T00:06:54.064Z,1.25
2023-03-03T00:09:22.112Z,1.24
2023-03-03T00:11:52.901Z,1.23
2023-03-03T00:14:24.446Z,1.22
2023-03-03T00:16:52.263Z,1.20
2023-03-03T00:19:20.580Z,1.19
2023-03-03T00:21:50.161Z,1.17
2023-03-03T00:24:48.895Z,1.16
2023-03-03T00:27:22.495Z,1.15
2023-03-03T00:29:56.057Z,1.15
2023-03-03T00:32:26.984Z,1.14
2023-03-03T00:34:56.590Z,1.12
2023-03-03T00:37:29.490Z,1.09
2023-03-03T00:40:24.156Z,1.09
2023-03-03T00:42:57.306Z,1.07
2023-03-03T00:45:39.185Z,1.07
2023-03-03T00:48:25.833Z,1.05
2023-03-03T00:50:59.089Z,1.02
2023-03-03T00:53:28.780Z,0.99
2023-03-03T00:55:57.271Z,0.97
2023-03-03T00:58:26.270Z,0.97
2023-03-03T01:00:56.839Z,0.97
2023-03-03T01:03:29.797Z,0.97
2023-03-03T01:05:58.095Z,0.96
2023-03-03T01:08:26.341Z,0.94
2023-03-03T01:10:56.778Z,0.93
2023-03-03T01:13:27.915Z,0.92
2023-03-03T01:15:55.970Z,0.92
2023-03-03T01:18:24.365Z,0.92
2023-03-03T01:20:53.356Z,0.92
2023-03-03T01:23:27.637Z,0.91
2023-03-03T01:25:57.098Z,0.93
2023-03-03T01:28:25.351Z,0.94
2023-03-03T01:30:54.069Z,0.93
2023-03-03T01:33:22.189Z,0.91
2023-03-03T01:35:50.546Z,0.90
2023-03-03T01:38:20.200Z,0.90
2023-03-03T01:40:55.716Z,0.88
2023-03-03T01:43:27.199Z,0.86
2023-03-03T01:45:57.951Z,0.83
2023-03-03T01:48:32.154Z,0.81
2023-03-03T01:51:03.394Z,0.78
2023-03-03T01:53:41.748Z,0.76
2023-03-03T01:56:10.187Z,0.72
2023-03-03T01:59:05.136Z,0.71
2023-03-03T02:01:34.458Z,0.68
2023-03-03T02:04:07.372Z,0.66
2023-03-03T02:06:39.234Z,0.64
2023-03-03T02:09:19.807Z,0.65
2023-03-03T02:11:49.277Z,0.65
2023-03-03T02:14:17.487Z,0.65
2023-03-03T02:16:45.636Z,0.64
2023-03-03T02:19:21.570Z,0.64
2023-03-03T02:21:50.308Z,0.63
2023-03-03T02:24:25.314Z,0.63
2023-03-03T02:26:56.517Z,0.63
2023-03-03T02:29:24.870Z,0.62
2023-03-03T02:31:54.059Z,0.60
2023-03-03T02:34:22.660Z,0.59
2023-03-03T02:36:51.953Z,0.56
2023-03-03T02:39:22.473Z,0.54
2023-03-03T02:42:04.921Z,0.51
2023-03-03T02:44:41.266Z,0.50
2023-03-03T02:47:09.557Z,0.48
2023-03-03T02:49:38.876Z,0.46
2023-03-03T02:52:10.024Z,0.44
2023-03-03T02:54:39.709Z,0.43
2023-03-03T02:57:09.161Z,0.43
2023-03-03T02:59:37.785Z,0.44
2023-03-03T03:02:11.176Z,0.46
2023-03-03T03:04:40.303Z,0.48
2023-03-03T03:07:09.364Z,0.51
2023-03-03T03:09:38.294Z,0.53
2023-03-03T03:12:06.543Z,0.53
2023-03-03T03:14:36.081Z,0.53
2023-03-03T03:17:06.587Z,0.52
2023-03-03T03:19:34.744Z,0.51
2023-03-03T03:22:03.748Z,0.48
2023-03-03T03:24:33.344Z,0.47
2023-03-03T03:27:04.623Z,0.46
2023-03-03T03:29:34.259Z,0.44
2023-03-03T03:32:02.925Z,0.43
2023-03-03T03:34:31.279Z,0.43
2023-03-03T03:37:01.815Z,0.43
2023-03-03T03:39:50.491Z,0.43
2023-03-03T03:42:18.847Z,0.42
2023-03-03T03:44:47.545Z,0.41
2023-03-03T03:47:17.970Z,0.40
2023-03-03T03:49:46.742Z,0.40
2023-03-03T03:52:15.112Z,0.37
2023-03-03T03:54:44.720Z,0.35
2023-03-03T03:57:14.528Z,0.33
2023-03-03T04:00:03.908Z,0.29
2023-03-03T04:02:44.038Z,0.28
2023-03-03T04:05:13.986Z,0.26
2023-03-03T04:07:42.092Z,0.25
2023-03-03T04:10:11.562Z,0.22
2023-03-03T04:12:40.555Z,0.19
2023-03-03T04:15:16.317Z,0.18
2023-03-03T04:17:46.119Z,0.16
2023-03-03T04:20:16.001Z,0.14
2023-03-03T04:22:45.136Z,0.12
2023-03-03T04:25:15.582Z,0.09
2023-03-03T04:27:44.113Z,0.06
2023-03-03T04:30:13.518Z,0.02
2023-03-03T04:32:42.108Z,0.01
2023-03-03T04:35:11.996Z,0.01
2023-03-03T04:37:42.276Z,0.02
2023-03-03T04:40:11.585Z,0.03
2023-03-03T04:42:41.301Z,0.06
2023-03-03T04:45:14.804Z,0.12
2023-03-03T04:47:44.290Z,0.18
2023-03-03T04:50:12.786Z,0.23
2023-03-03T04:52:43.922Z,0.29
2023-03-03T04:55:14.328Z,0.35
2023-03-03T04:57:43.134Z,0.41
2023-03-03T05:00:15.800Z,0.48
2023-03-03T05:10:23.802Z,0.75
2023-03-03T05:12:51.834Z,0.76
2023-03-03T05:15:20.412Z,0.80
2023-03-03T05:17:48.504Z,0.86
2023-03-03T05:20:20.550Z,0.91
2023-03-03T05:22:49.394Z,0.94
2023-03-03T05:25:17.723Z,0.99
2023-03-03T05:27:46.294Z,1.04
2023-03-03T05:30:15.013Z,1.09
2023-03-03T05:32:47.063Z,1.12
2023-03-03T05:35:15.441Z,1.14
2023-03-03T05:37:47.799Z,1.16
2023-03-03T05:40:16.229Z,1.21
2023-03-03T05:42:44.798Z,1.25
2023-03-03T05:45:13.379Z,1.29
2023-03-03T05:47:41.715Z,1.32
2023-03-03T05:50:10.481Z,1.36
2023-03-03T05:52:38.717Z,1.41
2023-03-03T05:55:11.277Z,1.47
2023-03-03T05:57:39.364Z,1.52
2023-03-03T06:00:09.630Z,1.58
2023-03-03T06:02:43.097Z,1.63
2023-03-03T06:05:11.999Z,1.67
2023-03-03T06:07:40.348Z,1.70
2023-03-03T06:10:08.994Z,1.73
2023-03-03T06:12:44.954Z,1.79
2023-03-03T06:15:13.385Z,1.86
2023-03-03T06:17:43.797Z,1.91
2023-03-03T06:20:12.607Z,1.96
2023-03-03T06:22:41.997Z,2.02
2023-03-03T06:25:12.033Z,2.06
2023-03-03T06:27:40.537Z,2.10
2023-03-03T06:30:13.051Z,2.16
2023-03-03T06:32:43.047Z,2.22
2023-03-03T06:35:11.675Z,2.27
2023-03-03T06:37:42.406Z,2.33
2023-03-03T06:40:12.121Z,2.37
2023-03-03T06:42:40.800Z,2.39
2023-03-03T06:45:09.893Z,2.41
2023-03-03T06:47:37.969Z,2.45
2023-03-03T06:50:08.900Z,2.48
2023-03-03T06:52:37.104Z,2.52
2023-03-03T06:55:18.967Z,2.55
2023-03-03T06:57:47.046Z,2.57
2023-03-03T07:00:21.044Z,2.59
2023-03-03T07:03:09.104Z,2.63
2023-03-03T07:05:37.297Z,2.68
2023-03-03T07:08:16.217Z,2.71
2023-03-03T07:10:44.736Z,2.75
2023-03-03T07:13:22.306Z,2.77
2023-03-03T07:15:52.512Z,2.79
2023-03-03T07:18:23.369Z,2.83
2023-03-03T07:20:51.532Z,2.88
2023-03-03T07:23:27.732Z,2.92
2023-03-03T07:25:56.199Z,2.96
2023-03-03T07:28:27.043Z,3.01
2023-03-03T07:30:59.378Z,3.05
2023-03-03T07:33:28.996Z,3.10
2023-03-03T07:35:58.396Z,3.12
2023-03-03T07:38:39.506Z,3.15
2023-03-03T07:41:25.992Z,3.21
2023-03-03T07:44:00.409Z,3.28
2023-03-03T07:46:31.224Z,3.34
2023-03-03T07:49:00.137Z,3.41
2023-03-03T07:51:42.132Z,3.45
2023-03-03T07:54:39.689Z,3.50
2023-03-03T07:57:43.547Z,3.56
2023-03-03T08:00:14.590Z,3.63
2023-03-03T08:02:49.598Z,3.70
2023-03-03T08:05:31.686Z,3.75
2023-03-03T08:08:13.920Z,3.82
2023-03-03T08:10:48.262Z,3.89
2023-03-03T08:13:22.625Z,3.93
2023-03-03T08:15:52.448Z,3.96
2023-03-03T08:18:24.086Z,4.00
2023-03-03T08:20:57.972Z,4.06
2023-03-03T08:23:26.186Z,4.11
2023-03-03T08:25:54.936Z,4.19
2023-03-03T08:28:23.226Z,4.24
2023-03-03T08:31:05.511Z,4.28
2023-03-03T08:33:34.831Z,4.33
2023-03-03T08:36:03.247Z,4.38
2023-03-03T08:38:32.860Z,4.45
2023-03-03T08:41:01.032Z,4.52
2023-03-03T08:43:32.030Z,4.61
2023-03-03T08:46:01.325Z,4.70
2023-03-03T08:48:30.174Z,4.79
2023-03-03T08:50:59.207Z,4.83
2023-03-03T08:53:28.056Z,4.86
2023-03-03T08:55:56.033Z,4.89
2023-03-03T08:58:34.708Z,4.89
2023-03-03T09:01:06.681Z,4.89
2023-03-03T09:03:55.063Z,4.92
2023-03-03T09:06:23.701Z,4.96
2023-03-03T09:08:55.777Z,5.03
2023-03-03T09:11:28.852Z,5.07
2023-03-03T09:14:12.826Z,5.12
2023-03-03T09:16:43.739Z,5.16
2023-03-03T09:19:22.973Z,5.18
2023-03-03T09:21:52.710Z,5.20
2023-03-03T09:24:28.831Z,5.23
2023-03-03T09:26:59.648Z,5.24
2023-03-03T09:29:33.247Z,5.27
2023-03-03T09:32:24.932Z,5.33
2023-03-03T09:34:53.254Z,5.40
2023-03-03T09:37:29.103Z,5.46
2023-03-03T09:39:57.825Z,5.53
2023-03-03T09:42:45.546Z,5.57
2023-03-03T09:45:36.322Z,5.61
2023-03-03T09:48:26.660Z,5.67
2023-03-03T09:51:19.525Z,5.74
2023-03-03T09:54:11.841Z,5.82
2023-03-03T09:56:44.978Z,5.89
2023-03-03T09:59:16.106Z,5.95
2023-03-03T10:01:50.885Z,5.98
2023-03-03T10:05:01.101Z,5.95
2023-03-03T10:07:41.341Z,5.90
2023-03-03T10:10:21.760Z,5.91
2023-03-03T10:13:18.748Z,5.92
2023-03-03T10:15:59.224Z,5.93
2023-03-03T10:18:33.864Z,5.98
2023-03-03T10:21:12.070Z,6.04
2023-03-03T10:23:56.764Z,6.11
2023-03-03T10:35:07.739Z,6.26
2023-03-03T10:37:53.842Z,6.20
2023-03-03T10:40:58.589Z,6.19
2023-03-03T10:44:07.300Z,6.18
2023-03-03T10:47:05.598Z,6.18
2023-03-03T10:49:41.391Z,6.20
2023-03-03T10:52:31.133Z,6.25
2023-03-03T10:55:21.899Z,6.26
2023-03-03T10:58:05.233Z,6.25
2023-03-03T11:08:17.848Z,6.31
2023-03-03T11:10:53.696Z,6.30
2023-03-03T11:13:37.313Z,6.30
2023-03-03T11:16:35.509Z,6.29
2023-03-03T11:19:39.072Z,6.30
2023-03-03T11:22:19.708Z,6.27
2023-03-03T11:25:01.302Z,6.22
2023-03-03T11:27:45.683Z,6.19
2023-03-03T11:30:39.932Z,6.16
2023-03-03T11:33:15.256Z,6.12
2023-03-03T11:35:51.849Z,6.11
2023-03-03T11:38:38.509Z,6.14
2023-03-03T11:41:31.670Z,6.15
2023-03-03T11:44:24.255Z,6.13
2023-03-03T11:47:19.632Z,6.12
2023-03-03T11:50:14.846Z,6.17
2023-03-03T11:53:18.545Z,6.20
2023-03-03T11:55:49.304Z,6.21
2023-03-03T11:58:26.269Z,6.20
2023-03-03T12:01:13.275Z,6.17
2023-03-03T12:04:01.493Z,6.12
2023-03-03T12:07:19.154Z,6.08
2023-03-03T12:10:10.708Z,6.07
2023-03-03T12:12:59.638Z,6.06
2023-03-03T12:15:30.881Z,6.03
2023-03-03T12:18:27.326Z,5.97
2023-03-03T12:21:14.954Z,5.91
2023-03-03T12:24:05.386Z,5.88
2023-03-03T12:26:43.406Z,5.84
2023-03-03T12:29:23.960Z,5.78
2023-03-03T12:31:57.795Z,5.75
2023-03-03T12:34:31.741Z,5.71
2023-03-03T12:37:10.921Z,5.67
2023-03-03T12:39:45.417Z,5.66
2023-03-03T12:42:44.351Z,5.63
2023-03-03T12:45:50.368Z,5.57
2023-03-03T12:48:28.484Z,5.48
2023-03-03T12:51:28.079Z,5.43
2023-03-03T12:54:14.922Z,5.42
2023-03-03T12:57:24.636Z,5.40
2023-03-03T13:00:01.725Z,5.39
2023-03-03T13:02:56.715Z,5.38
2023-03-03T13:05:30.371Z,5.33
2023-03-03T13:08:17.309Z,5.29
2023-03-03T13:10:47.396Z,5.21
2023-03-03T13:13:50.190Z,5.14
2023-03-03T13:16:38.931Z,5.11
2023-03-03T13:19:16.198Z,5.12
2023-03-03T13:22:01.589Z,5.11
2023-03-03T13:24:58.029Z,5.13
2023-03-03T13:27:28.211Z,5.14
2023-03-03T13:30:09.317Z,5.13
2023-03-03T13:33:08.669Z,5.10
2023-03-03T13:35:48.108Z,5.04
2023-03-03T13:38:41.837Z,4.99
2023-03-03T13:41:32.324Z,4.95
2023-03-03T13:44:23.227Z,4.93
2023-03-03T13:46:52.275Z,4.92
2023-03-03T13:49:20.312Z,4.88
2023-03-03T13:52:01.990Z,4.87
2023-03-03T13:54:45.453Z,4.88
2023-03-03T13:57:41.451Z,4.85
2023-03-03T14:00:24.122Z,4.82
2023-03-03T14:02:58.323Z,4.77
2023-03-03T14:05:32.197Z,4.73
2023-03-03T14:08:06.776Z,4.70
2023-03-03T14:10:59.489Z,4.68
2023-03-03T14:22:47.387Z,4.60
2023-03-03T14:25:15.724Z,4.58
2023-03-03T14:27:46.775Z,4.57
2023-03-03T14:30:28.180Z,4.53
2023-03-03T14:33:02.397Z,4.48
2023-03-03T14:35:38.387Z,4.44
2023-03-03T14:38:18.025Z,4.43
2023-03-03T14:40:47.004Z,4.39
2023-03-03T14:43:38.743Z,4.37
2023-03-03T14:46:31.828Z,4.35
2023-03-03T14:49:05.552Z,4.36
2023-03-03T14:51:48.025Z,4.37
2023-03-03T14:54:29.775Z,4.35
2023-03-03T14:57:07.078Z,4.33
2023-03-03T14:59:35.078Z,4.32
2023-03-03T15:02:30.420Z,4.32
2023-03-03T15:05:13.277Z,4.32
2023-03-03T15:07:42.109Z,4.31
2023-03-03T15:10:11.961Z,4.31
2023-03-03T15:12:41.801Z,4.27
2023-03-03T15:15:11.594Z,4.23
2023-03-03T15:18:02.676Z,4.22
2023-03-03T15:20:45.623Z,4.23
2023-03-03T15:23:28.967Z,4.22
2023-03-03T15:26:04.515Z,4.19
2023-03-03T15:28:51.117Z,4.17
2023-03-03T15:31:30.291Z,4.15
2023-03-03T15:34:03.047Z,4.12
2023-03-03T15:36:47.814Z,4.09
2023-03-03T15:39:47.431Z,4.04
2023-03-03T15:42:27.851Z,4.03
2023-03-03T15:45:06.070Z,4.04
2023-03-03T15:47:55.396Z,4.04
2023-03-03T15:50:32.085Z,4.00
2023-03-03T15:53:20.036Z,3.99
2023-03-03T15:56:13.465Z,3.96
2023-03-03T15:59:10.569Z,3.93
2023-03-03T16:01:51.713Z,3.90
2023-03-03T16:04:25.898Z,3.89
2023-03-03T16:07:05.808Z,3.87
2023-03-03T16:09:52.272Z,3.87
2023-03-03T16:12:30.801Z,3.88
2023-03-03T16:15:13.894Z,3.86
2023-03-03T16:18:05.051Z,3.85
2023-03-03T16:20:40.474Z,3.84
2023-03-03T16:23:40.033Z,3.83
2023-03-03T16:26:20.373Z,3.82
2023-03-03T16:28:58.499Z,3.81
2023-03-03T16:31:54.551Z,3.81
2023-03-03T16:34:47.659Z,3.80
2023-03-03T16:37:26.860Z,3.80
2023-03-03T16:40:11.355Z,3.81
2023-03-03T16:42:57.576Z,3.82
2023-03-03T16:45:33.678Z,3.82
2023-03-03T16:48:20.836Z,3.84
2023-03-03T16:51:19.839Z,3.83
2023-03-03T16:53:53.807Z,3.83
2023-03-03T16:56:29.161Z,3.79
2023-03-03T16:59:07.441Z,3.79
2023-03-03T17:01:35.522Z,3.80
2023-03-03T17:04:28.670Z,3.80
2023-03-03T17:07:02.593Z,3.81
2023-03-03T17:09:39.788Z,3.82
2023-03-03T17:12:22.578Z,3.80
2023-03-03T17:14:57.930Z,3.79
2023-03-03T17:17:35.009Z,3.78
2023-03-03T17:20:24.437Z,3.78
2023-03-03T17:23:07.976Z,3.79
2023-03-03T17:26:00.995Z,3.78
2023-03-03T17:29:05.370Z,3.76
2023-03-03T17:31:43.599Z,3.74
2023-03-03T17:34:38.680Z,3.72
2023-03-03T17:37:34.413Z,3.69
2023-03-03T17:40:37.988Z,3.67
2023-03-03T17:43:16.379Z,3.66
2023-03-03T17:45:45.692Z,3.62
2023-03-03T17:48:23.034Z,3.60
2023-03-03T17:51:06.488Z,3.58
2023-03-03T17:53:59.314Z,3.55
2023-03-03T17:56:38.730Z,3.52
2023-03-03T17:59:34.540Z,3.51
2023-03-03T18:02:21.626Z,3.50
2023-03-03T18:05:08.391Z,3.49
2023-03-03T18:07:45.587Z,3.49
2023-03-03T18:10:33.370Z,3.49
2023-03-03T18:13:22.541Z,3.49
2023-03-03T18:16:19.351Z,3.49
2023-03-03T18:19:12.509Z,3.47
2023-03-03T18:22:00.402Z,3.46
2023-03-03T18:24:31.218Z,3.44
2023-03-03T18:27:24.482Z,3.42
2023-03-03T18:30:07.823Z,3.41
2023-03-03T18:33:02.040Z,3.40
2023-03-03T18:35:33.261Z,3.40
2023-03-03T18:38:16.807Z,3.41
2023-03-03T18:40:59.081Z,3.40
2023-03-03T18:43:52.268Z,3.40
2023-03-03T18:46:20.284Z,3.39
2023-03-03T18:49:01.624Z,3.39
2023-03-03T18:51:39.272Z,3.38
2023-03-03T18:54:26.319Z,3.37
2023-03-03T18:56:55.949Z,3.36
2023-03-03T18:59:31.739Z,3.35
2023-03-03T19:02:20.777Z,3.33
2023-03-03T19:04:49.529Z,3.31
2023-03-03T19:07:30.069Z,3.31
2023-03-03T19:10:02.938Z,3.30
2023-03-03T19:12:56.302Z,3.30
2023-03-03T19:15:35.603Z,3.31
2023-03-03T19:18:16.921Z,3.32
2023-03-03T19:21:25.176Z,3.32
2023-03-03T19:23:59.752Z,3.32
2023-03-03T19:26:31.644Z,3.34
2023-03-03T19:29:15.674Z,3.36
2023-03-03T19:31:51.039Z,3.38
2023-03-03T19:34:38.137Z,3.38
2023-03-03T19:37:53.360Z,3.39
2023-03-03T19:40:29.287Z,3.41
2023-03-03T19:43:07.406Z,3.43
2023-03-03T19:45:54.639Z,3.42
2023-03-03T19:48:52.222Z,3.41
2023-03-03T19:51:50.285Z,3.40
2023-03-03T19:54:49.657Z,3.38
2023-03-03T19:57:55.713Z,3.36
2023-03-03T20:00:28.522Z,3.35
2023-03-03T20:03:41.892Z,3.33
2023-03-03T20:06:17.269Z,3.31
2023-03-03T20:09:29.595Z,3.30
2023-03-03T20:12:28.712Z,3.30
2023-03-03T20:15:12.809Z,3.29
2023-03-03T20:18:18.857Z,3.28
2023-03-03T20:21:16.937Z,3.28
2023-03-03T20:24:28.819Z,3.27
2023-03-03T20:27:26.812Z,3.27
2023-03-03T20:30:04.048Z,3.28
2023-03-03T20:32:48.736Z,3.31
2023-03-03T20:36:07.756Z,3.32
2023-03-03T20:39:16.479Z,3.33
2023-03-03T20:41:58.964Z,3.34
2023-03-03T20:45:07.728Z,3.34
2023-03-03T20:47:47.777Z,3.31
2023-03-03T20:51:19.782Z,3.31
2023-03-03T20:54:18.800Z,3.28
2023-03-03T20:56:57.797Z,3.25
2023-03-03T20:59:37.914Z,3.23
2023-03-03T21:02:21.324Z,3.24
2023-03-03T21:05:12.898Z,3.23
2023-03-03T21:08:03.815Z,3.23
2023-03-03T21:10:36.862Z,3.22
2023-03-03T21:20:42.245Z,3.21
2023-03-03T21:23:11.954Z,3.19
2023-03-03T21:25:40.975Z,3.16
2023-03-03T21:28:34.426Z,3.14
2023-03-03T21:31:08.433Z,3.14
2023-03-03T21:33:47.081Z,3.13
2023-03-03T21:36:36.852Z,3.12
2023-03-03T21:39:31.282Z,3.11
2023-03-03T21:42:06.679Z,3.10
2023-03-03T21:44:40.649Z,3.09
2023-03-03T21:47:16.920Z,3.10
2023-03-03T21:50:00.266Z,3.10
2023-03-03T21:52:28.477Z,3.10
2023-03-03T21:54:56.924Z,3.09
2023-03-03T21:57:26.833Z,3.08
2023-03-03T21:59:57.604Z,3.07
2023-03-03T22:02:25.866Z,3.07
2023-03-03T22:04:54.107Z,3.07
2023-03-03T22:07:22.205Z,3.07
2023-03-03T22:09:51.926Z,3.07
2023-03-03T22:12:20.529Z,3.06
2023-03-03T22:14:54.309Z,3.05
2023-03-03T22:17:25.752Z,3.04
2023-03-03T22:19:55.831Z,3.04
2023-03-03T22:22:24.601Z,3.04
2023-03-03T22:24:53.959Z,3.03
2023-03-03T22:27:23.911Z,3.04
2023-03-03T22:29:52.160Z,3.03
2023-03-03T22:32:20.564Z,3.02
2023-03-03T22:34:50.598Z,3.00
2023-03-03T22:37:18.633Z,3.00
2023-03-03T22:39:46.846Z,3.00
2023-03-03T22:42:16.002Z,2.99
2023-03-03T22:44:48.777Z,2.98
2023-03-03T22:47:16.900Z,2.97
2023-03-03T22:49:44.935Z,2.96
2023-03-03T22:52:13.048Z,2.96
2023-03-03T22:54:42.419Z,2.97
2023-03-03T22:57:10.375Z,2.97
2023-03-03T22:59:38.533Z,2.96
2023-03-03T23:02:07.750Z,2.96
2023-03-03T23:04:36.458Z,2.97
2023-03-03T23:07:07.396Z,2.97
2023-03-03T23:09:40.871Z,2.97
2023-03-03T23:12:17.965Z,2.96
2023-03-03T23:14:47.525Z,2.95
2023-03-03T23:17:16.044Z,2.96
2023-03-03T23:19:46.441Z,2.98
2023-03-03T23:22:15.789Z,2.98
2023-03-03T23:24:44.045Z,2.99
2023-03-03T23:27:12.218Z,2.99
2023-03-03T23:29:42.343Z,3.00
2023-03-03T23:32:10.435Z,3.01
2023-03-03T23:34:40.554Z,3.01
2023-03-03T23:37:09.325Z,3.00
2023-03-03T23:39:37.392Z,3.00
2023-03-03T23:42:06.014Z,3.00
2023-03-03T23:44:33.933Z,3.00
2023-03-03T23:47:06.562Z,3.00
2023-03-03T23:49:35.422Z,2.99
2023-03-03T23:52:03.916Z,2.98
2023-03-03T23:54:31.910Z,2.98
2023-03-03T23:57:00.160Z,2.97
2023-03-03T23:59:28.108Z,2.97
